createdAt,value
2018-12-24T00:00:37.499Z,5.80
2018-12-24T00:03:08.515Z,5.80
2018-12-24T00:05:37.070Z,5.70
2018-12-24T00:08:05.733Z,5.70
2018-12-24T00:10:34.274Z,5.60
2018-12-24T00:13:02.909Z,5.60
2018-12-24T00:15:31.461Z,5.50
2018-12-24T00:18:00.027Z,5.50
2018-12-24T00:20:28.566Z,5.50
2018-12-24T00:22:57.134Z,5.50
2018-12-24T00:25:25.676Z,5.50
2018-12-24T00:27:54.240Z,5.60
2018-12-24T00:30:22.902Z,5.60
2018-12-24T00:32:51.537Z,5.60
2018-12-24T00:35:20.073Z,5.50
2018-12-24T00:37:48.950Z,5.50
2018-12-24T00:40:17.520Z,5.50
2018-12-24T00:42:46.422Z,5.50
2018-12-24T00:45:14.960Z,5.50
2018-12-24T00:47:43.594Z,5.50
2018-12-24T00:50:12.208Z,5.50
2018-12-24T00:52:40.787Z,5.40
2018-12-24T00:55:09.660Z,5.30
2018-12-24T00:57:38.208Z,5.20
2018-12-24T01:00:06.905Z,5.30
2018-12-24T01:02:35.795Z,5.20
2018-12-24T01:05:04.520Z,5.20
2018-12-24T01:07:33.073Z,5.20
2018-12-24T01:10:01.650Z,5.20
2018-12-24T01:12:30.191Z,5.20
2018-12-24T01:14:58.861Z,5.20
2018-12-24T01:17:27.406Z,5.20
2018-12-24T01:19:55.963Z,5.20
2018-12-24T01:22:24.514Z,5.20
2018-12-24T01:24:53.085Z,5.20
2018-12-24T01:27:21.679Z,5.20
2018-12-24T01:29:50.266Z,5.30
2018-12-24T01:32:18.800Z,5.30
2018-12-24T01:34:47.366Z,5.30
2018-12-24T01:37:15.914Z,5.30
2018-12-24T01:39:44.495Z,5.30
2018-12-24T01:42:13.092Z,5.30
2018-12-24T01:44:41.648Z,5.30
2018-12-24T01:47:10.190Z,5.30
2018-12-24T01:49:38.817Z,5.30
2018-12-24T01:52:07.346Z,5.30
2018-12-24T01:54:35.912Z,5.30
2018-12-24T01:57:04.536Z,5.40
2018-12-24T01:59:33.096Z,5.30
2018-12-24T02:02:01.729Z,5.30
2018-12-24T02:04:30.305Z,5.30
2018-12-24T02:06:58.855Z,5.30
2018-12-24T02:09:27.425Z,5.40
2018-12-24T02:11:55.979Z,5.30
2018-12-24T02:14:24.635Z,5.40
2018-12-24T02:16:53.179Z,5.30
2018-12-24T02:19:21.821Z,5.40
2018-12-24T02:21:53.138Z,5.40
2018-12-24T02:24:21.708Z,5.30
2018-12-24T02:26:50.255Z,5.40
2018-12-24T02:29:18.815Z,5.40
2018-12-24T02:31:47.437Z,5.40
2018-12-24T02:34:16.077Z,5.40
2018-12-24T02:36:44.652Z,5.40
2018-12-24T02:39:13.371Z,5.40
2018-12-24T02:41:41.930Z,5.40
2018-12-24T02:44:10.477Z,5.40
2018-12-24T02:46:39.046Z,5.40
2018-12-24T02:49:07.589Z,5.50
2018-12-24T02:51:36.225Z,5.50
2018-12-24T02:54:04.785Z,5.50
2018-12-24T02:56:33.407Z,5.50
2018-12-24T02:59:02.189Z,5.40
2018-12-24T03:01:31.670Z,5.50
2018-12-24T03:04:00.291Z,5.50
2018-12-24T03:06:28.853Z,5.40
2018-12-24T03:08:57.400Z,5.40
2018-12-24T03:11:26.044Z,5.40
2018-12-24T03:13:54.597Z,5.40
2018-12-24T03:16:23.146Z,5.40
2018-12-24T03:18:51.716Z,5.40
2018-12-24T03:21:20.345Z,5.40
2018-12-24T03:23:48.986Z,5.40
2018-12-24T03:26:17.636Z,5.40
2018-12-24T03:28:46.193Z,5.40
2018-12-24T03:31:14.918Z,5.40
2018-12-24T03:33:43.543Z,5.40
2018-12-24T03:36:12.253Z,5.40
2018-12-24T03:38:40.914Z,5.40
2018-12-24T03:41:09.473Z,5.40
2018-12-24T03:43:38.033Z,5.40
2018-12-24T03:46:06.661Z,5.40
2018-12-24T03:48:35.225Z,5.40
2018-12-24T03:51:03.773Z,5.40
2018-12-24T03:53:32.346Z,5.40
2018-12-24T03:56:00.913Z,5.40
2018-12-24T03:58:29.553Z,5.50
2018-12-24T04:00:58.114Z,5.50
2018-12-24T04:03:26.675Z,5.50
2018-12-24T04:05:55.230Z,5.50
2018-12-24T04:08:23.803Z,5.50
2018-12-24T04:10:52.351Z,5.50
2018-12-24T04:13:22.635Z,5.50
2018-12-24T04:15:51.205Z,5.50
2018-12-24T04:18:19.839Z,5.50
2018-12-24T04:20:48.467Z,5.60
2018-12-24T04:23:17.120Z,5.60
2018-12-24T04:25:45.749Z,5.60
2018-12-24T04:28:14.305Z,5.60
2018-12-24T04:30:42.860Z,5.50
2018-12-24T04:33:11.420Z,5.60
2018-12-24T04:35:39.965Z,5.50
2018-12-24T04:38:08.528Z,5.50
2018-12-24T04:40:37.068Z,5.50
2018-12-24T04:43:05.622Z,5.50
2018-12-24T04:45:34.181Z,5.50
2018-12-24T04:48:02.725Z,5.50
2018-12-24T04:50:31.303Z,5.60
2018-12-24T04:52:59.850Z,5.50
2018-12-24T04:55:28.427Z,5.50
2018-12-24T04:57:56.987Z,5.50
2018-12-24T05:00:25.550Z,5.50
2018-12-24T05:02:54.110Z,5.50
2018-12-24T05:05:22.691Z,5.50
2018-12-24T05:07:51.243Z,5.50
2018-12-24T05:10:19.802Z,5.50
2018-12-24T05:12:48.358Z,5.50
2018-12-24T05:15:17.001Z,5.50
2018-12-24T05:17:45.544Z,5.50
2018-12-24T05:20:14.144Z,5.50
2018-12-24T05:22:42.757Z,5.50
2018-12-24T05:25:11.371Z,5.50
2018-12-24T05:27:39.964Z,5.50
2018-12-24T05:30:08.649Z,5.40
2018-12-24T05:32:37.236Z,5.50
2018-12-24T05:35:05.782Z,5.50
2018-12-24T05:37:34.352Z,5.50
2018-12-24T05:40:02.962Z,5.50
2018-12-24T05:42:31.554Z,5.50
2018-12-24T05:45:00.114Z,5.50
2018-12-24T05:47:28.686Z,5.50
2018-12-24T05:49:57.229Z,5.60
2018-12-24T05:52:25.805Z,5.60
2018-12-24T05:54:54.364Z,5.60
2018-12-24T05:57:22.960Z,5.50
2018-12-24T05:59:51.579Z,5.50
2018-12-24T06:02:20.231Z,5.50
2018-12-24T06:04:48.789Z,5.50
2018-12-24T06:07:17.350Z,5.50
2018-12-24T06:09:45.903Z,5.60
2018-12-24T06:12:14.553Z,5.50
2018-12-24T06:14:43.105Z,5.50
2018-12-24T06:17:11.656Z,5.50
2018-12-24T06:19:40.243Z,5.50
2018-12-24T06:22:08.790Z,5.50
2018-12-24T06:24:37.365Z,5.50
2018-12-24T06:27:05.909Z,5.50
2018-12-24T06:29:34.476Z,5.50
2018-12-24T06:32:03.027Z,5.50
2018-12-24T06:34:31.598Z,5.50
2018-12-24T06:37:00.142Z,5.50
2018-12-24T06:39:30.618Z,5.40
2018-12-24T06:41:59.165Z,5.50
2018-12-24T06:44:27.744Z,5.50
2018-12-24T06:46:56.315Z,5.40
2018-12-24T06:49:24.886Z,5.40
2018-12-24T06:51:53.446Z,5.40
2018-12-24T06:54:22.047Z,5.50
2018-12-24T06:56:50.592Z,5.40
2018-12-24T06:59:19.146Z,5.40
2018-12-24T07:01:47.723Z,5.40
2018-12-24T07:04:16.310Z,5.40
2018-12-24T07:06:44.888Z,5.40
2018-12-24T07:09:13.433Z,5.40
2018-12-24T07:11:42.004Z,5.40
2018-12-24T07:14:15.374Z,5.40
2018-12-24T07:16:40.836Z,5.40
2018-12-24T07:19:09.411Z,5.40
2018-12-24T07:21:37.992Z,5.40
2018-12-24T07:24:06.533Z,5.40
2018-12-24T07:26:35.094Z,5.40
2018-12-24T07:29:03.637Z,5.40
2018-12-24T07:31:32.297Z,5.40
2018-12-24T07:34:00.845Z,5.40
2018-12-24T07:36:29.425Z,5.40
2018-12-24T07:38:57.962Z,5.40
2018-12-24T07:41:26.524Z,5.40
2018-12-24T07:43:55.061Z,5.40
2018-12-24T07:46:23.641Z,5.40
2018-12-24T07:48:52.187Z,5.40
2018-12-24T07:51:20.821Z,5.30
2018-12-24T07:53:49.370Z,5.30
2018-12-24T07:56:17.899Z,5.30
2018-12-24T07:58:46.778Z,5.40
2018-12-24T08:01:15.393Z,5.30
2018-12-24T08:03:43.961Z,5.40
2018-12-24T08:06:12.498Z,5.40
2018-12-24T08:08:41.082Z,5.40
2018-12-24T08:11:09.634Z,5.40
2018-12-24T08:13:38.218Z,5.40
2018-12-24T08:16:06.842Z,5.40
2018-12-24T08:18:35.473Z,5.40
2018-12-24T08:21:04.111Z,5.40
2018-12-24T08:23:32.834Z,5.40
2018-12-24T08:26:01.374Z,5.40
2018-12-24T08:28:30.061Z,5.50
2018-12-24T08:30:58.627Z,5.50
2018-12-24T08:33:27.184Z,5.50
2018-12-24T08:35:55.758Z,5.50
2018-12-24T08:38:24.387Z,5.50
2018-12-24T08:40:52.945Z,5.50
2018-12-24T08:43:21.568Z,5.50
2018-12-24T08:45:50.112Z,5.60
2018-12-24T08:48:18.685Z,5.50
2018-12-24T08:50:47.239Z,5.50
2018-12-24T08:53:15.780Z,5.60
2018-12-24T08:55:44.422Z,5.70
2018-12-24T08:58:12.971Z,5.80
2018-12-24T09:00:41.550Z,5.70
2018-12-24T09:03:10.092Z,5.70
2018-12-24T09:05:38.652Z,5.70
2018-12-24T09:08:07.262Z,5.70
2018-12-24T09:10:35.884Z,5.70
2018-12-24T09:13:07.087Z,5.70
2018-12-24T09:15:35.654Z,5.70
2018-12-24T09:18:04.192Z,5.70
2018-12-24T09:20:32.764Z,5.70
2018-12-24T09:23:01.339Z,5.80
2018-12-24T09:25:30.052Z,5.70
2018-12-24T09:27:58.921Z,5.70
2018-12-24T09:30:27.485Z,5.80
2018-12-24T09:32:56.100Z,5.90
2018-12-24T09:35:24.673Z,5.80
2018-12-24T09:37:53.268Z,5.90
2018-12-24T09:40:21.829Z,5.80
2018-12-24T09:42:51.706Z,5.80
2018-12-24T09:45:20.534Z,5.80
2018-12-24T09:47:49.092Z,5.80
2018-12-24T09:50:18.517Z,5.80
2018-12-24T09:52:47.145Z,5.80
2018-12-24T09:55:15.697Z,5.80
2018-12-24T09:57:44.267Z,5.80
2018-12-24T10:00:15.146Z,5.90
2018-12-24T10:02:44.161Z,6.00
2018-12-24T10:05:12.778Z,6.00
2018-12-24T10:07:41.762Z,5.90
2018-12-24T10:10:10.765Z,5.90
2018-12-24T10:12:39.339Z,6.00
2018-12-24T10:15:08.120Z,6.00
2018-12-24T10:17:36.921Z,6.10
2018-12-24T10:20:06.103Z,6.20
2018-12-24T10:22:34.652Z,6.20
2018-12-24T10:25:03.208Z,6.10
2018-12-24T10:27:31.836Z,6.10
2018-12-24T10:30:00.373Z,6.20
2018-12-24T10:32:28.928Z,6.20
2018-12-24T10:34:57.474Z,6.10
2018-12-24T10:37:26.033Z,6.10
2018-12-24T10:39:54.650Z,6.30
2018-12-24T10:42:23.208Z,6.20
2018-12-24T10:44:51.818Z,6.10
2018-12-24T10:47:20.376Z,6.10
2018-12-24T10:49:49.710Z,6.10
2018-12-24T10:52:18.289Z,6.10
2018-12-24T10:54:46.811Z,6.00
2018-12-24T10:57:15.368Z,6.10
2018-12-24T10:59:43.904Z,6.10
2018-12-24T11:02:12.465Z,6.10
2018-12-24T11:04:41.488Z,6.10
2018-12-24T11:07:10.097Z,6.10
2018-12-24T11:09:38.723Z,5.90
2018-12-24T11:12:07.492Z,6.00
2018-12-24T11:14:36.076Z,6.00
2018-12-24T11:17:04.665Z,6.10
2018-12-24T11:19:33.317Z,6.20
2018-12-24T11:22:01.851Z,6.20
2018-12-24T11:24:33.386Z,6.20
2018-12-24T11:27:01.916Z,6.20
2018-12-24T11:29:30.469Z,6.30
2018-12-24T11:31:59.023Z,6.30
2018-12-24T11:34:27.704Z,6.20
2018-12-24T11:36:56.281Z,6.20
2018-12-24T11:39:24.842Z,6.40
2018-12-24T11:41:53.382Z,6.60
2018-12-24T11:44:21.943Z,6.80
2018-12-24T11:46:51.961Z,6.80
2018-12-24T11:49:20.536Z,6.80
2018-12-24T11:51:51.877Z,6.90
2018-12-24T11:54:20.437Z,6.80
2018-12-24T11:56:48.979Z,6.90
2018-12-24T11:59:17.592Z,6.60
2018-12-24T12:01:46.156Z,6.50
2018-12-24T12:04:14.690Z,6.40
2018-12-24T12:06:43.249Z,6.40
2018-12-24T12:09:11.861Z,6.30
2018-12-24T12:11:40.432Z,6.10
2018-12-24T12:14:08.993Z,6.10
2018-12-24T12:16:37.569Z,6.20
2018-12-24T12:19:06.105Z,6.30
2018-12-24T12:21:34.678Z,6.50
2018-12-24T12:24:03.239Z,6.40
2018-12-24T12:26:31.803Z,6.30
2018-12-24T12:29:00.333Z,6.00
2018-12-24T12:31:28.928Z,5.80
2018-12-24T12:33:57.470Z,5.50
2018-12-24T12:36:26.012Z,5.40
2018-12-24T12:38:54.601Z,5.20
2018-12-24T12:41:23.218Z,5.10
2018-12-24T12:43:51.777Z,5.00
2018-12-24T12:46:20.317Z,5.00
2018-12-24T12:48:48.885Z,5.00
2018-12-24T12:51:17.434Z,5.00
2018-12-24T12:53:46.073Z,5.10
2018-12-24T12:56:14.691Z,5.20
2018-12-24T12:58:43.241Z,5.20
2018-12-24T13:01:11.801Z,5.30
2018-12-24T13:03:40.363Z,5.30
2018-12-24T13:06:08.900Z,5.30
2018-12-24T13:08:37.458Z,5.30
2018-12-24T13:11:06.023Z,5.20
2018-12-24T13:13:36.904Z,5.20
2018-12-24T13:16:04.929Z,5.10
2018-12-24T13:18:33.489Z,4.90
2018-12-24T13:21:02.083Z,4.80
2018-12-24T13:23:30.706Z,4.70
2018-12-24T13:25:59.260Z,4.60
2018-12-24T13:28:27.838Z,4.60
2018-12-24T13:30:56.382Z,4.50
2018-12-24T13:33:28.030Z,4.50
2018-12-24T13:35:56.673Z,4.50
2018-12-24T13:38:25.222Z,4.50
2018-12-24T13:40:53.815Z,4.60
2018-12-24T13:43:24.316Z,4.70
2018-12-24T13:45:53.009Z,4.90
2018-12-24T13:48:21.624Z,4.80
2018-12-24T13:51:31.212Z,5.00
2018-12-24T13:53:59.652Z,5.20
2018-12-24T13:56:28.100Z,5.40
2018-12-24T13:58:56.544Z,6.10
2018-12-24T14:01:25.005Z,6.80
2018-12-24T14:03:53.439Z,7.30
2018-12-24T14:06:21.902Z,7.50
2018-12-24T14:08:50.344Z,7.60
2018-12-24T14:11:19.088Z,7.90
2018-12-24T14:13:47.681Z,8.10
2018-12-24T14:16:16.866Z,8.20
2018-12-24T14:18:45.769Z,8.10
2018-12-24T14:21:14.248Z,8.40
2018-12-24T14:23:42.697Z,8.30
2018-12-24T14:26:11.152Z,8.20
2018-12-24T14:28:39.592Z,8.00
2018-12-24T14:31:08.058Z,8.10
2018-12-24T14:33:36.500Z,7.90
2018-12-24T14:36:04.937Z,7.30
2018-12-24T14:38:33.394Z,6.80
2018-12-24T14:41:01.839Z,6.30
2018-12-24T14:43:30.303Z,6.00
2018-12-24T14:45:58.749Z,5.70
2018-12-24T14:48:27.214Z,5.60
2018-12-24T14:50:55.649Z,5.40
2018-12-24T14:53:24.128Z,5.20
2018-12-24T14:55:52.657Z,5.10
2018-12-24T14:58:21.103Z,4.90
2018-12-24T15:00:49.552Z,4.80
2018-12-24T15:03:17.999Z,4.70
2018-12-24T15:05:46.429Z,4.70
2018-12-24T15:08:14.883Z,4.70
2018-12-24T15:10:43.320Z,4.70
2018-12-24T15:13:11.854Z,4.80
2018-12-24T15:15:40.307Z,4.80
2018-12-24T15:18:08.771Z,4.70
2018-12-24T15:20:37.351Z,4.60
2018-12-24T15:23:05.814Z,4.60
2018-12-24T15:25:34.240Z,4.60
2018-12-24T15:28:02.667Z,4.60
2018-12-24T15:30:31.401Z,4.40
2018-12-24T15:32:59.845Z,4.30
2018-12-24T15:35:28.297Z,4.20
2018-12-24T15:37:56.739Z,4.00
2018-12-24T15:40:25.198Z,3.90
2018-12-24T15:42:53.628Z,3.80
2018-12-24T15:45:22.084Z,3.90
2018-12-24T15:47:50.520Z,3.70
2018-12-24T15:50:18.980Z,3.40
2018-12-24T15:52:47.422Z,3.20
2018-12-24T15:55:15.871Z,3.00
2018-12-24T15:57:44.315Z,2.80
2018-12-24T16:00:12.846Z,2.70
2018-12-24T16:02:41.284Z,2.60
2018-12-24T16:05:09.810Z,2.70
2018-12-24T16:07:38.247Z,2.70
2018-12-24T16:10:06.696Z,2.60
2018-12-24T16:12:35.133Z,2.50
2018-12-24T16:15:03.956Z,2.50
2018-12-24T16:17:32.384Z,2.60
2018-12-24T16:20:00.851Z,2.70
2018-12-24T16:22:29.294Z,2.60
2018-12-24T16:24:57.752Z,2.40
2018-12-24T16:27:26.188Z,2.30
2018-12-24T16:29:54.635Z,2.10
2018-12-24T16:32:23.092Z,2.00
2018-12-24T16:34:51.541Z,2.10
2018-12-24T16:37:19.988Z,2.00
2018-12-24T16:39:48.505Z,1.90
2018-12-24T16:42:17.029Z,1.80
2018-12-24T16:44:45.455Z,1.70
2018-12-24T16:47:14.026Z,1.70
2018-12-24T16:49:42.541Z,1.70
2018-12-24T16:52:11.104Z,1.70
2018-12-24T16:54:39.594Z,1.60
2018-12-24T16:57:08.035Z,1.60
2018-12-24T16:59:36.473Z,1.60
2018-12-24T17:02:04.936Z,1.60
2018-12-24T17:04:33.376Z,1.70
2018-12-24T17:07:01.932Z,1.60
2018-12-24T17:09:30.372Z,1.60
2018-12-24T17:11:58.832Z,1.70
2018-12-24T17:14:27.277Z,1.70
2018-12-24T17:16:55.744Z,1.60
2018-12-24T17:19:24.247Z,1.60
2018-12-24T17:21:52.714Z,1.80
2018-12-24T17:24:21.160Z,1.80
2018-12-24T17:26:49.612Z,1.70
2018-12-24T17:29:18.064Z,1.60
2018-12-24T17:31:46.521Z,1.50
2018-12-24T17:34:14.992Z,1.30
2018-12-24T17:36:43.427Z,1.40
2018-12-24T17:39:11.888Z,1.30
2018-12-24T17:41:40.324Z,1.30
2018-12-24T17:44:08.787Z,1.20
2018-12-24T17:46:37.228Z,1.20
2018-12-24T17:49:05.691Z,1.20
2018-12-24T17:51:34.133Z,1.30
2018-12-24T17:54:02.571Z,1.20
2018-12-24T17:56:31.043Z,1.10
2018-12-24T17:58:59.489Z,1.10
2018-12-24T18:01:28.301Z,1.20
2018-12-24T18:03:56.768Z,1.20
2018-12-24T18:06:25.228Z,1.20
2018-12-24T18:08:53.659Z,1.20
2018-12-24T18:11:22.129Z,1.20
2018-12-24T18:13:50.584Z,1.10
2018-12-24T18:16:19.057Z,1.00
2018-12-24T18:18:49.560Z,0.90
2018-12-24T18:21:17.692Z,0.90
2018-12-24T18:23:46.132Z,0.90
2018-12-24T18:26:14.698Z,0.90
2018-12-24T18:28:43.138Z,0.90
2018-12-24T18:31:19.758Z,0.90
2018-12-24T18:33:41.853Z,1.00
2018-12-24T18:36:10.323Z,1.00
2018-12-24T18:38:39.075Z,1.00
2018-12-24T18:41:07.525Z,0.90
2018-12-24T18:43:35.991Z,0.90
2018-12-24T18:46:04.509Z,0.90
2018-12-24T18:48:33.413Z,0.90
2018-12-24T18:51:01.857Z,0.90
2018-12-24T18:53:30.320Z,1.00
2018-12-24T18:56:00.405Z,1.10
2018-12-24T18:58:28.860Z,1.10
2018-12-24T19:00:57.477Z,1.10
2018-12-24T19:03:25.941Z,1.00
2018-12-24T19:05:54.718Z,0.90
2018-12-24T19:08:23.197Z,0.80
2018-12-24T19:10:51.653Z,0.80
2018-12-24T19:13:20.123Z,0.80
2018-12-24T19:15:48.555Z,0.70
2018-12-24T19:18:17.001Z,0.70
2018-12-24T19:20:45.471Z,0.60
2018-12-24T19:23:13.989Z,0.50
2018-12-24T19:25:42.448Z,0.50
2018-12-24T19:28:10.889Z,0.50
2018-12-24T19:30:39.452Z,0.50
2018-12-24T19:33:07.904Z,0.50
2018-12-24T19:35:36.378Z,0.50
2018-12-24T19:38:04.822Z,0.40
2018-12-24T19:40:33.372Z,0.40
2018-12-24T19:43:01.809Z,0.40
2018-12-24T19:45:30.279Z,0.50
2018-12-24T19:47:58.720Z,0.50
2018-12-24T19:50:27.190Z,0.60
2018-12-24T19:52:55.625Z,0.60
2018-12-24T19:55:24.096Z,0.50
2018-12-24T19:57:52.543Z,0.50
2018-12-24T20:00:23.672Z,0.50
2018-12-24T20:02:52.157Z,0.40
2018-12-24T20:05:20.678Z,0.40
2018-12-24T20:07:49.329Z,0.30
2018-12-24T20:10:17.843Z,0.40
2018-12-24T20:12:46.305Z,0.40
2018-12-24T20:15:14.857Z,0.40
2018-12-24T20:17:43.314Z,0.40
2018-12-24T20:20:11.770Z,0.40
2018-12-24T20:22:40.311Z,0.40
2018-12-24T20:25:08.821Z,0.30
2018-12-24T20:27:37.285Z,0.30
2018-12-24T20:30:06.438Z,0.20
2018-12-24T20:32:34.909Z,0.20
2018-12-24T20:35:03.344Z,0.10
2018-12-24T20:37:31.781Z,0.10
2018-12-24T20:40:00.267Z,0.20
2018-12-24T20:42:28.729Z,0.20
2018-12-24T20:44:57.194Z,0.20
2018-12-24T20:47:25.653Z,0.20
2018-12-24T20:49:54.207Z,0.10
2018-12-24T20:52:22.832Z,0.10
2018-12-24T20:54:51.356Z,0.10
2018-12-24T20:57:19.812Z,0.10
2018-12-24T20:59:48.285Z,0.10
2018-12-24T21:02:16.721Z,0.10
2018-12-24T21:04:45.273Z,0.00
2018-12-24T21:07:13.709Z,0.00
2018-12-24T21:09:42.153Z,0.10
2018-12-24T21:12:10.617Z,0.10
2018-12-24T21:14:39.060Z,0.10
2018-12-24T21:17:07.555Z,0.00
2018-12-24T21:19:36.031Z,0.00
2018-12-24T21:22:04.502Z,0.00
2018-12-24T21:24:32.971Z,0.00
2018-12-24T21:27:01.424Z,0.00
2018-12-24T21:29:30.231Z,0.00
2018-12-24T21:31:58.696Z,0.00
2018-12-24T21:34:27.213Z,0.00
2018-12-24T21:36:55.689Z,0.00
2018-12-24T21:39:27.223Z,0.00
2018-12-24T21:41:55.707Z,0.00
2018-12-24T21:44:24.148Z,0.00
2018-12-24T21:46:52.616Z,0.00
2018-12-24T21:49:21.052Z,0.00
2018-12-24T21:51:49.500Z,0.00
2018-12-24T21:54:17.972Z,0.00
2018-12-24T21:56:46.771Z,0.00
2018-12-24T21:59:15.240Z,0.00
2018-12-24T22:01:43.698Z,0.00
2018-12-24T22:04:12.157Z,-0.10
2018-12-24T22:06:40.621Z,-0.10
2018-12-24T22:09:09.104Z,0.00
2018-12-24T22:11:37.573Z,-0.10
2018-12-24T22:14:06.049Z,-0.10
2018-12-24T22:16:34.503Z,-0.10
2018-12-24T22:19:02.946Z,-0.20
2018-12-24T22:21:31.403Z,-0.20
2018-12-24T22:23:59.847Z,-0.20
2018-12-24T22:26:28.319Z,-0.20
2018-12-24T22:28:56.938Z,-0.20
2018-12-24T22:31:25.444Z,-0.20
2018-12-24T22:33:53.889Z,-0.20
2018-12-24T22:36:22.365Z,-0.20
2018-12-24T22:38:50.825Z,-0.20
2018-12-24T22:41:19.469Z,-0.20
2018-12-24T22:43:47.915Z,-0.20
2018-12-24T22:46:16.384Z,-0.10
2018-12-24T22:48:44.926Z,-0.20
2018-12-24T22:51:13.408Z,-0.20
2018-12-24T22:53:41.879Z,-0.20
2018-12-24T22:56:10.348Z,-0.20
2018-12-24T22:58:38.796Z,-0.20
2018-12-24T23:01:07.517Z,-0.20
2018-12-24T23:03:35.980Z,-0.20
2018-12-24T23:06:04.456Z,-0.30
2018-12-24T23:08:32.924Z,-0.20
2018-12-24T23:11:01.384Z,-0.20
2018-12-24T23:13:29.858Z,-0.20
2018-12-24T23:15:58.307Z,-0.20
2018-12-24T23:18:26.775Z,-0.10
2018-12-24T23:20:55.220Z,-0.10
2018-12-24T23:23:23.700Z,-0.10
2018-12-24T23:25:52.150Z,0.00
2018-12-24T23:28:20.616Z,0.00
2018-12-24T23:30:49.062Z,0.10
2018-12-24T23:33:17.527Z,0.10
2018-12-24T23:35:45.976Z,0.20
2018-12-24T23:38:14.420Z,0.10
2018-12-24T23:40:42.891Z,0.30
2018-12-24T23:43:11.324Z,0.30
2018-12-24T23:45:39.796Z,0.40
2018-12-24T23:48:08.240Z,0.50
2018-12-24T23:50:36.701Z,0.50
2018-12-24T23:53:05.143Z,0.50
2018-12-24T23:55:33.619Z,0.50
2018-12-24T23:58:02.693Z,0.60
